Time;durP1;ratioP1;P1;durP2;ratioP2;P2;SDS_P1;SDS_P2;PMS_P1;PMS_P2;Temp;Humidity;BMP_temperature;BMP_pressure;BME280_temperature;BME280_humidity;BME280_pressure;Samples;Min_cycle;Max_cycle;Signal;HPM_P1;HPM_P2
2022/01/22 00:00:44;;;;;;;18.38;9.63;;;6.10;99.90;;;;;;5077723;28;20036;-80
2022/01/22 00:03:10;;;;;;;19.63;9.82;;;5.00;99.90;;;;;;5089560;28;20024;-80
2022/01/22 00:05:36;;;;;;;23.90;10.20;;;5.20;99.90;;;;;;5072740;28;20028;-80
2022/01/22 00:08:02;;;;;;;20.58;9.27;;;5.10;99.90;;;;;;5073288;28;20043;-75
2022/01/22 00:10:28;;;;;;;15.40;8.68;;;5.10;99.90;;;;;;5071320;28;20024;-77
2022/01/22 00:15:42;;;;;;;18.20;8.50;;;5.20;99.90;;;;;;5050018;28;20499;-78
2022/01/22 00:18:08;;;;;;;18.52;8.57;;;5.20;99.90;;;;;;5069692;28;20036;-78
2022/01/22 00:20:36;;;;;;;17.38;8.40;;;5.20;99.90;;;;;;5070973;28;20032;-78
2022/01/22 00:23:05;;;;;;;15.93;7.95;;;5.20;99.90;;;;;;5074685;28;20101;-75
2022/01/22 00:25:31;;;;;;;18.67;8.48;;;5.10;99.90;;;;;;5086664;28;20513;-79
2022/01/22 00:27:57;;;;;;;14.55;8.30;;;5.20;99.90;;;;;;5089271;28;20035;-76
2022/01/22 00:30:25;;;;;;;17.65;8.70;;;5.10;99.90;;;;;;5069192;28;20039;-79
2022/01/22 00:32:52;;;;;;;25.35;12.52;;;5.10;99.90;;;;;;5069941;28;20024;-78
2022/01/22 00:35:19;;;;;;;17.92;8.90;;;7.10;99.90;;;;;;5073329;28;20474;-79
2022/01/22 00:37:47;;;;;;;16.77;8.27;;;5.10;99.90;;;;;;5066631;28;20496;-78
2022/01/22 00:40:14;;;;;;;17.23;8.43;;;5.10;99.90;;;;;;5087444;28;20042;-79
2022/01/22 00:42:40;;;;;;;16.33;8.43;;;5.10;99.90;;;;;;5086422;28;20029;-78
2022/01/22 00:45:07;;;;;;;16.40;8.88;;;5.10;99.90;;;;;;5085291;28;20028;-78
2022/01/22 00:47:33;;;;;;;21.95;10.50;;;5.10;99.90;;;;;;5092335;28;20043;-77
2022/01/22 00:49:59;;;;;;;19.10;9.18;;;5.50;99.90;;;;;;5067873;28;20024;-79
2022/01/22 00:52:24;;;;;;;17.95;8.02;;;5.10;99.90;;;;;;5070741;28;20119;-78
2022/01/22 00:54:50;;;;;;;18.73;9.10;;;5.10;99.90;;;;;;5085846;28;20031;-76
2022/01/22 00:57:16;;;;;;;22.42;8.60;;;;;;;;;;5047717;28;20052;-78
2022/01/22 00:59:42;;;;;;;21.25;9.48;;;5.10;99.90;;;;;;5089134;28;20080;-78
2022/01/22 01:02:07;;;;;;;15.02;8.25;;;5.10;99.90;;;;;;5089551;28;20062;-78
2022/01/22 01:04:35;;;;;;;18.33;8.68;;;5.10;99.90;;;;;;5070202;28;20169;-79
2022/01/22 01:07:01;;;;;;;16.45;8.65;;;;;;;;;;5068434;28;20028;-77
2022/01/22 01:09:27;;;;;;;19.05;10.35;;;5.20;99.90;;;;;;5085622;28;20028;-80
2022/01/22 01:11:58;;;;;;;25.80;11.40;;;;;;;;;;5087524;28;20031;-78
2022/01/22 01:14:31;;;;;;;22.48;9.35;;;;;;;;;;5069252;28;20016;-80
2022/01/22 01:17:11;;;;;;;16.58;9.13;;;;;;;;;;5082334;28;20904;-77
2022/01/22 01:33:48;;;;;;;21.50;10.43;;;5.00;99.90;;;;;;5086085;28;20093;-76
2022/01/22 01:36:15;;;;;;;22.25;11.52;;;5.00;99.90;;;;;;5070579;28;20036;-78
2022/01/22 01:38:48;;;;;;;20.48;9.77;;;5.00;99.90;;;;;;5067994;28;20032;-79
2022/01/22 01:41:23;;;;;;;17.25;9.48;;;5.00;99.90;;;;;;5086048;28;20039;-78
2022/01/22 01:43:49;;;;;;;16.83;9.55;;;4.90;99.90;;;;;;5085579;28;20020;-80
2022/01/22 01:46:15;;;;;;;20.35;9.93;;;4.90;99.90;;;;;;5070656;28;20077;-79
2022/01/22 01:48:42;;;;;;;19.15;10.60;;;4.90;99.90;;;;;;5066069;28;20028;-81
2022/01/22 01:51:08;;;;;;;16.30;9.75;;;5.00;99.90;;;;;;5063906;28;20032;-79
2022/01/22 01:58:28;;;;;;;22.92;10.25;;;5.10;99.90;;;;;;5086492;28;20505;-79
2022/01/22 02:00:54;;;;;;;18.50;9.63;;;5.60;99.90;;;;;;5068899;28;20584;-78
2022/01/22 02:03:22;;;;;;;19.67;9.30;;;5.10;99.90;;;;;;5082554;28;20029;-79
2022/01/22 02:05:47;;;;;;;16.65;8.63;;;5.10;99.90;;;;;;5068942;28;20028;-77
2022/01/22 02:08:15;;;;;;;20.08;9.45;;;5.00;99.90;;;;;;5090706;28;21357;-78
2022/01/22 02:10:46;;;;;;;17.65;8.98;;;5.00;99.90;;;;;;5061564;28;20115;-79
2022/01/22 02:24:08;;;;;;;18.55;8.63;;;5.20;99.90;;;;;;5079465;28;20039;-77
2022/01/22 02:26:34;;;;;;;15.25;7.80;;;5.10;99.90;;;;;;5080887;28;20090;-79
2022/01/22 02:29:00;;;;;;;12.00;7.97;;;5.10;99.90;;;;;;5069310;28;20601;-79
2022/01/22 02:31:38;;;;;;;16.25;8.27;;;5.10;99.90;;;;;;5069299;28;20549;-78
2022/01/22 02:36:56;;;;;;;18.60;7.90;;;5.10;99.90;;;;;;5088219;28;20031;-79
2022/01/22 02:39:23;;;;;;;19.77;8.80;;;5.00;99.90;;;;;;5079059;28;20032;-79
2022/01/22 02:41:51;;;;;;;17.80;8.15;;;5.00;99.90;;;;;;5066662;28;20060;-77
2022/01/22 02:44:44;;;;;;;17.02;8.55;;;5.00;99.90;;;;;;5066216;28;20052;-80
2022/01/22 02:47:10;;;;;;;17.73;8.27;;;5.00;99.90;;;;;;5080749;28;20059;-79
2022/01/22 02:49:36;;;;;;;19.05;8.00;;;5.50;99.90;;;;;;5086494;28;20169;-78
2022/01/22 02:52:09;;;;;;;21.13;9.25;;;4.90;99.90;;;;;;5089111;28;20533;-76
2022/01/22 02:54:36;;;;;;;19.33;8.63;;;5.00;99.90;;;;;;5085155;28;20036;-77
2022/01/22 02:57:03;;;;;;;23.70;8.18;;;5.00;99.90;;;;;;5069829;28;20031;-77
2022/01/22 02:59:28;;;;;;;16.00;7.50;;;4.90;99.90;;;;;;5087758;28;20046;-78
2022/01/22 03:01:54;;;;;;;15.32;6.97;;;5.00;99.90;;;;;;5070317;28;20393;-79
2022/01/22 03:04:20;;;;;;;11.85;6.70;;;5.00;99.90;;;;;;5087296;28;20294;-78
2022/01/22 03:06:47;;;;;;;15.68;6.78;;;5.00;99.90;;;;;;5088421;28;20036;-78
2022/01/22 03:09:15;;;;;;;14.57;7.40;;;5.00;99.90;;;;;;5071395;28;20045;-77
2022/01/22 03:12:01;;;;;;;13.27;6.95;;;5.00;99.90;;;;;;5070836;28;20032;-78
2022/01/22 03:22:19;;;;;;;12.85;6.35;;;5.00;99.90;;;;;;5083849;28;20115;-77
2022/01/22 03:27:31;;;;;;;16.85;6.07;;;5.60;99.90;;;;;;5084496;28;20082;-79
2022/01/22 03:29:57;;;;;;;15.85;6.30;;;4.90;99.90;;;;;;5070268;28;20036;-79
2022/01/22 03:32:27;;;;;;;11.13;6.03;;;4.90;99.90;;;;;;5071449;28;20120;-77
2022/01/22 03:35:09;;;;;;;13.82;6.07;;;5.00;99.90;;;;;;5071822;28;20019;-80
2022/01/22 03:37:35;;;;;;;16.05;5.88;;;5.00;99.90;;;;;;5091574;28;20025;-77
2022/01/22 03:40:00;;;;;;;13.23;5.78;;;4.90;99.90;;;;;;5068545;28;20019;-80
2022/01/22 03:42:26;;;;;;;14.38;6.10;;;5.10;99.90;;;;;;5069437;28;20038;-80
2022/01/22 03:44:51;;;;;;;17.25;6.50;;;4.90;99.90;;;;;;5090572;28;20806;-79
2022/01/22 03:47:17;;;;;;;11.55;5.03;;;4.90;99.90;;;;;;5074724;28;20031;-78
2022/01/22 03:49:43;;;;;;;12.77;5.60;;;4.90;99.90;;;;;;5072197;28;20505;-78
2022/01/22 03:52:09;;;;;;;16.75;6.55;;;4.90;99.90;;;;;;5071348;28;20370;-78
2022/01/22 03:54:35;;;;;;;13.77;6.63;;;4.90;99.90;;;;;;5070859;28;20016;-77
2022/01/22 03:57:01;;;;;;;10.65;4.85;;;4.80;99.90;;;;;;5070514;28;20028;-79
2022/01/22 03:59:29;;;;;;;12.95;5.13;;;4.80;99.90;;;;;;5086981;28;20024;-77
2022/01/22 04:04:46;;;;;;;13.00;4.75;;;4.80;99.90;;;;;;5087708;28;20032;-77
2022/01/22 04:09:53;;;;;;;10.23;5.03;;;4.90;99.90;;;;;;5087979;28;20030;-77
2022/01/22 04:12:25;;;;;;;11.27;4.60;;;4.90;99.90;;;;;;5072247;28;20060;-78
2022/01/22 04:15:00;;;;;;;11.43;4.38;;;5.60;99.90;;;;;;5071176;28;20032;-78
2022/01/22 04:25:29;;;;;;;11.48;4.20;;;4.90;99.90;;;;;;5085212;28;20382;-77
2022/01/22 04:27:56;;;;;;;15.80;4.95;;;5.00;99.90;;;;;;5069859;28;20035;-77
2022/01/22 04:30:22;;;;;;;8.75;4.07;;;4.90;99.90;;;;;;5084427;28;20021;-78
2022/01/22 04:32:48;;;;;;;13.40;4.60;;;4.90;99.90;;;;;;5091106;28;20027;-76
2022/01/22 04:35:15;;;;;;;12.85;5.30;;;4.80;99.90;;;;;;5066211;28;20024;-78
2022/01/22 04:37:41;;;;;;;11.40;4.53;;;4.90;99.90;;;;;;5048728;28;20025;-77
2022/01/22 04:40:08;;;;;;;11.55;4.60;;;4.80;99.90;;;;;;5084842;28;20101;-78
2022/01/22 04:42:36;;;;;;;11.25;4.05;;;4.80;99.90;;;;;;5068569;28;20028;-76
2022/01/22 04:45:12;;;;;;;12.95;4.78;;;4.90;99.90;;;;;;5067777;28;20028;-77
2022/01/22 04:55:39;;;;;;;9.88;4.35;;;4.90;99.90;;;;;;5090978;28;20432;-78
2022/01/22 04:58:06;;;;;;;11.80;4.75;;;5.00;99.90;;;;;;5069554;28;20113;-78
2022/01/22 05:00:33;;;;;;;11.73;4.10;;;5.00;99.90;;;;;;5069210;28;20087;-78
2022/01/22 05:03:00;;;;;;;16.05;5.13;;;5.00;99.90;;;;;;5066389;28;20035;-78
2022/01/22 05:05:26;;;;;;;11.57;4.68;;;5.00;99.90;;;;;;5069136;28;20109;-82
2022/01/22 05:07:52;;;;;;;12.23;3.88;;;5.00;99.90;;;;;;5070718;28;20047;-78
2022/01/22 05:10:18;;;;;;;10.15;4.05;;;5.00;99.90;;;;;;5069340;28;20024;-79
2022/01/22 05:12:44;;;;;;;12.75;4.20;;;5.20;99.90;;;;;;5071414;28;20040;-79
2022/01/22 05:15:10;;;;;;;8.10;3.58;;;5.20;99.90;;;;;;5068187;28;20082;-78
2022/01/22 05:17:39;;;;;;;14.10;4.63;;;5.30;99.90;;;;;;5077057;28;20034;-78
2022/01/22 05:20:12;;;;;;;11.80;3.97;;;5.30;99.90;;;;;;5086843;28;20016;-79
2022/01/22 05:25:29;;;;;;;13.57;4.22;;;5.40;99.90;;;;;;5091687;28;20020;-78
2022/01/22 05:38:21;;;;;;;12.60;4.55;;;5.60;99.90;;;;;;5087635;28;20085;-79
2022/01/22 05:40:47;;;;;;;10.57;5.50;;;5.00;99.90;;;;;;5087441;28;20549;-78
2022/01/22 05:43:13;;;;;;;13.07;5.68;;;5.00;99.90;;;;;;5083245;28;20501;-80
2022/01/22 05:45:38;;;;;;;16.25;6.45;;;5.00;99.90;;;;;;5077064;28;20088;-79
2022/01/22 05:48:04;;;;;;;17.70;5.53;;;5.10;99.90;;;;;;5063211;28;20036;-78
2022/01/22 05:50:34;;;;;;;12.88;5.20;;;5.00;99.90;;;;;;5087164;28;20042;-78
2022/01/22 05:53:06;;;;;;;7.95;4.38;;;5.00;99.90;;;;;;5092989;28;20401;-78
2022/01/22 06:01:00;;;;;;;15.23;5.35;;;5.20;99.90;;;;;;5080195;28;20116;-79
2022/01/22 06:03:25;;;;;;;11.02;5.50;;;5.30;99.90;;;;;;5071130;28;20032;-79
2022/01/22 06:05:51;;;;;;;16.13;5.40;;;5.20;99.90;;;;;;5069557;28;20024;-77
2022/01/22 06:08:17;;;;;;;18.90;5.80;;;5.10;99.90;;;;;;5064906;28;20073;-79
2022/01/22 06:10:47;;;;;;;13.35;6.20;;;5.00;99.90;;;;;;5073744;28;20066;-77
2022/01/22 06:13:19;;;;;;;19.60;5.63;;;4.90;99.90;;;;;;5092067;28;20027;-76
2022/01/22 06:15:45;;;;;;;16.23;6.40;;;4.90;99.90;;;;;;5088606;28;20298;-78
2022/01/22 06:18:10;;;;;;;15.20;5.82;;;4.90;99.90;;;;;;5072310;28;20032;-80
2022/01/22 06:20:36;;;;;;;12.65;6.05;;;4.90;99.90;;;;;;5071655;28;20419;-77
2022/01/22 06:23:03;;;;;;;19.52;6.40;;;5.00;99.90;;;;;;5091522;28;20112;-76
2022/01/22 06:25:29;;;;;;;13.63;6.00;;;4.90;99.90;;;;;;5073442;28;20032;-80
2022/01/22 06:27:54;;;;;;;16.83;6.85;;;5.00;99.90;;;;;;5096306;28;20035;-77
2022/01/22 06:30:20;;;;;;;13.20;6.20;;;5.00;99.90;;;;;;5094362;28;20036;-77
2022/01/22 06:32:46;;;;;;;15.82;7.07;;;5.00;99.90;;;;;;5094572;28;20028;-78
2022/01/22 06:35:12;;;;;;;16.90;6.88;;;5.00;99.90;;;;;;5071111;28;20397;-79
2022/01/22 06:37:38;;;;;;;21.95;6.55;;;5.00;99.90;;;;;;5069768;28;20111;-79
2022/01/22 06:42:30;;;;;;;17.70;7.90;;;4.90;99.90;;;;;;5088276;28;20055;-79
2022/01/22 06:45:00;;;;;;;18.67;6.97;;;4.90;99.90;;;;;;5082599;28;20028;-77
2022/01/22 06:47:26;;;;;;;19.77;7.28;;;4.90;99.90;;;;;;5079733;28;20035;-79
2022/01/22 06:49:52;;;;;;;19.27;6.93;;;5.80;99.90;;;;;;5073282;28;20602;-79
2022/01/22 06:52:18;;;;;;;17.33;6.82;;;4.80;99.90;;;;;;5092054;28;20035;-78
2022/01/22 06:54:44;;;;;;;16.02;6.95;;;4.90;99.90;;;;;;5080096;28;20039;-78
2022/01/22 06:57:11;;;;;;;17.13;6.88;;;4.90;99.90;;;;;;5092146;28;20059;-79
2022/01/22 06:59:36;;;;;;;15.90;7.20;;;4.90;99.90;;;;;;5074780;28;20016;-78
2022/01/22 07:02:02;;;;;;;20.80;8.63;;;4.90;99.90;;;;;;5092067;28;20031;-78
2022/01/22 07:04:31;;;;;;;16.88;7.47;;;4.80;99.90;;;;;;5092440;28;20055;-78
2022/01/22 07:06:57;;;;;;;21.35;8.23;;;4.80;99.90;;;;;;5074883;28;20023;-78
2022/01/22 07:09:23;;;;;;;17.52;7.40;;;4.80;99.90;;;;;;5090374;28;20032;-78
2022/01/22 07:11:49;;;;;;;18.83;7.65;;;4.80;99.90;;;;;;5079417;28;20031;-78
2022/01/22 07:14:16;;;;;;;20.88;7.10;;;4.80;99.90;;;;;;5074924;28;20035;-79
2022/01/22 07:16:41;;;;;;;14.70;6.90;;;4.80;99.90;;;;;;5085446;28;20028;-77
2022/01/22 07:19:07;;;;;;;20.35;7.20;;;5.00;99.90;;;;;;5083925;28;20047;-78
2022/01/22 07:21:32;;;;;;;19.92;7.75;;;4.90;99.90;;;;;;5093588;28;20020;-78
2022/01/22 07:26:28;;;;;;;18.45;7.40;;;4.80;99.90;;;;;;5091083;28;20517;-79
2022/01/22 07:28:54;;;;;;;16.88;7.35;;;5.00;99.90;;;;;;5065608;28;20434;-77
2022/01/22 07:31:27;;;;;;;19.17;7.00;;;5.00;99.90;;;;;;5067474;28;20047;-78
2022/01/22 07:33:53;;;;;;;18.92;7.28;;;5.00;99.90;;;;;;5087123;28;20039;-79
2022/01/22 07:36:18;;;;;;;18.88;7.78;;;5.10;99.90;;;;;;5072271;28;20095;-79
2022/01/22 07:38:44;;;;;;;18.92;7.60;;;5.10;99.90;;;;;;5086438;28;20035;-78
2022/01/22 07:41:11;;;;;;;14.88;6.95;;;5.00;99.90;;;;;;5070993;28;20470;-76
2022/01/22 07:43:37;;;;;;;17.45;7.13;;;5.00;99.90;;;;;;5085199;28;20101;-78
2022/01/22 07:46:05;;;;;;;22.42;8.23;;;4.90;99.90;;;;;;5067457;28;20611;-76
2022/01/22 07:48:30;;;;;;;17.55;7.63;;;5.00;99.90;;;;;;5069817;28;20071;-77
2022/01/22 07:50:56;;;;;;;20.63;8.32;;;5.00;99.90;;;;;;5086258;28;20206;-79
2022/01/22 07:53:24;;;;;;;18.08;7.28;;;5.00;99.90;;;;;;5087647;28;20066;-79
2022/01/22 07:55:50;;;;;;;20.98;8.68;;;5.40;99.90;;;;;;5089535;28;20027;-83
2022/01/22 07:58:15;;;;;;;18.75;8.02;;;4.90;99.90;;;;;;5072812;28;20032;-83
2022/01/22 08:00:41;;;;;;;23.92;9.00;;;4.90;99.90;;;;;;5075175;28;20093;-83
2022/01/22 08:03:08;;;;;;;23.45;8.40;;;4.90;99.90;;;;;;5063380;28;20095;-82
2022/01/22 08:05:34;;;;;;;20.65;8.70;;;4.90;99.90;;;;;;5070177;28;20512;-83
2022/01/22 08:08:00;;;;;;;18.77;8.02;;;4.90;99.90;;;;;;5092976;28;20036;-79
2022/01/22 08:10:26;;;;;;;22.10;8.07;;;4.90;99.90;;;;;;5069730;28;20026;-84
2022/01/22 08:12:52;;;;;;;18.27;8.27;;;4.90;99.90;;;;;;5069727;28;20028;-81
2022/01/22 08:15:18;;;;;;;19.95;8.45;;;4.90;99.90;;;;;;5070336;28;20029;-81
2022/01/22 08:17:45;;;;;;;19.05;8.07;;;4.90;99.90;;;;;;5073591;28;20528;-83
2022/01/22 08:20:12;;;;;;;18.70;7.75;;;5.00;99.90;;;;;;5078574;28;20035;-80
2022/01/22 08:22:38;;;;;;;17.42;7.25;;;4.90;99.90;;;;;;5071283;28;20460;-81
2022/01/22 08:25:05;;;;;;;21.13;8.05;;;6.80;99.90;;;;;;5075810;28;20028;-82
2022/01/22 08:27:36;;;;;;;22.08;7.95;;;4.90;99.90;;;;;;5089760;28;20039;-85
2022/01/22 08:30:03;;;;;;;23.42;9.25;;;6.80;99.90;;;;;;5072457;28;20798;-81
2022/01/22 08:37:44;;;;;;;30.10;13.02;;;5.10;99.90;;;;;;5101272;28;20067;-84
2022/01/22 08:40:11;;;;;;;20.88;9.70;;;5.10;99.90;;;;;;5084815;28;20028;-81
2022/01/22 08:42:37;;;;;;;19.80;8.68;;;5.10;99.90;;;;;;5076179;28;20032;-85
2022/01/22 08:45:04;;;;;;;21.42;8.80;;;6.00;99.90;;;;;;5091436;28;20497;-81
2022/01/22 08:47:30;;;;;;;22.73;8.95;;;5.10;99.90;;;;;;5068976;28;20036;-79
2022/01/22 08:49:55;;;;;;;21.08;8.65;;;5.10;99.90;;;;;;5064963;28;20043;-84
2022/01/22 08:52:26;;;;;;;21.25;8.10;;;5.20;99.90;;;;;;5078275;28;20100;-81
2022/01/22 08:54:51;;;;;;;19.85;7.90;;;5.40;99.90;;;;;;5074676;28;20040;-83
2022/01/22 08:57:18;;;;;;;19.75;8.77;;;5.70;99.90;;;;;;5076289;28;20026;-81
2022/01/22 08:59:44;;;;;;;19.80;8.35;;;5.80;99.90;;;;;;5087098;28;20081;-86
2022/01/22 09:02:10;;;;;;;23.60;10.07;;;7.70;99.90;;;;;;5073807;28;20020;-85
2022/01/22 09:04:36;;;;;;;21.40;8.10;;;7.50;99.90;;;;;;5068093;28;20488;-84
2022/01/22 09:07:04;;;;;;;30.63;10.18;;;7.50;99.90;;;;;;5075630;28;20024;-82
2022/01/22 09:09:30;;;;;;;20.58;9.80;;;5.30;99.90;;;;;;5070945;28;20032;-82
2022/01/22 09:11:56;;;;;;;23.23;9.45;;;7.70;99.90;;;;;;5093022;28;20024;-81
2022/01/22 09:14:22;;;;;;;17.58;8.93;;;6.20;99.90;;;;;;5070513;28;20107;-82
2022/01/22 09:16:51;;;;;;;24.58;9.30;;;5.00;99.90;;;;;;5082857;28;20111;-82
2022/01/22 09:19:17;;;;;;;24.90;9.38;;;5.40;99.90;;;;;;5083336;28;20028;-84
2022/01/22 09:21:45;;;;;;;20.80;9.18;;;5.30;99.90;;;;;;5090754;28;20039;-84
2022/01/22 09:24:15;;;;;;;18.00;9.02;;;5.50;99.90;;;;;;5074574;28;20055;-82
2022/01/22 09:26:41;;;;;;;20.50;9.07;;;5.60;99.90;;;;;;5073380;28;20024;-81
2022/01/22 09:29:07;;;;;;;22.13;9.30;;;5.50;99.90;;;;;;5073638;28;20024;-83
2022/01/22 09:31:34;;;;;;;20.13;9.05;;;6.90;99.90;;;;;;5077579;28;20020;-81
2022/01/22 09:34:01;;;;;;;21.95;10.18;;;6.80;99.90;;;;;;5072795;28;20030;-81
2022/01/22 09:36:29;;;;;;;21.40;9.32;;;7.70;99.90;;;;;;5073066;28;20484;-86
2022/01/22 09:38:56;;;;;;;25.90;11.38;;;7.50;99.90;;;;;;5070423;28;20042;-83
2022/01/22 09:41:24;;;;;;;28.05;10.75;;;7.70;99.90;;;;;;5068287;28;20028;-82
2022/01/22 09:43:51;;;;;;;21.75;9.00;;;5.60;99.90;;;;;;5072183;28;20028;-82
2022/01/22 09:46:17;;;;;;;19.15;9.43;;;5.60;99.90;;;;;;5069003;28;20035;-80
2022/01/22 09:48:46;;;;;;;25.08;9.68;;;5.10;99.90;;;;;;5072136;28;20051;-81
2022/01/22 09:51:13;;;;;;;20.50;9.35;;;5.60;99.90;;;;;;5086112;28;20085;-83
2022/01/22 09:53:45;;;;;;;20.85;9.10;;;7.30;99.90;;;;;;5067873;28;20020;-81
2022/01/22 09:56:12;;;;;;;23.70;9.93;;;5.60;99.90;;;;;;5065929;28;20044;-83
2022/01/22 09:58:38;;;;;;;19.65;8.90;;;5.60;99.90;;;;;;5070494;28;20024;-80
2022/01/22 10:01:30;;;;;;;21.17;9.40;;;7.30;99.90;;;;;;5086350;28;20029;-80
2022/01/22 10:04:00;;;;;;;21.77;8.95;;;5.70;99.90;;;;;;5084834;28;20024;-84
2022/01/22 10:06:31;;;;;;;18.15;8.40;;;4.20;99.90;;;;;;5071113;28;20024;-79
2022/01/22 10:09:12;;;;;;;20.75;9.15;;;5.70;99.90;;;;;;5068717;28;20489;-80
2022/01/22 10:11:38;;;;;;;18.58;9.38;;;5.70;99.90;;;;;;5068566;28;20043;-81
2022/01/22 10:14:07;;;;;;;16.85;8.30;;;5.70;99.90;;;;;;5062591;28;20048;-82
2022/01/22 10:16:35;;;;;;;20.38;8.95;;;5.80;99.90;;;;;;5085832;28;20023;-82
2022/01/22 10:19:18;;;;;;;20.30;8.65;;;5.90;99.90;;;;;;5069291;28;20024;-82
2022/01/22 10:21:59;;;;;;;15.25;8.75;;;5.90;99.90;;;;;;5085391;28;20727;-82
2022/01/22 10:24:33;;;;;;;18.27;8.75;;;5.90;99.90;;;;;;5071371;28;20032;-83
2022/01/22 10:27:31;;;;;;;17.52;8.20;;;5.90;99.90;;;;;;5086561;28;20421;-79
2022/01/22 10:30:11;;;;;;;15.68;8.55;;;7.00;99.90;;;;;;5072456;28;20370;-83
2022/01/22 10:32:52;;;;;;;22.98;9.65;;;6.10;99.90;;;;;;5071695;28;20031;-82
2022/01/22 10:35:19;;;;;;;;;;;7.60;99.90;;;;;;5071879;28;20591;-83
2022/01/22 10:37:45;;;;;;;16.20;8.30;;;6.00;99.90;;;;;;5070572;28;20025;-82
2022/01/22 10:40:29;;;;;;;15.98;7.88;;;7.80;99.90;;;;;;5093439;28;20046;-81
2022/01/22 10:43:17;;;;;;;15.43;7.95;;;6.20;99.90;;;;;;5087985;28;20036;-81
2022/01/22 10:46:04;;;;;;;17.83;8.85;;;6.10;99.90;;;;;;5067439;28;20024;-82
2022/01/22 10:48:30;;;;;;;22.17;8.82;;;6.20;99.90;;;;;;5069303;28;20028;-81
2022/01/22 10:51:11;;;;;;;16.73;7.72;;;6.00;99.90;;;;;;5088701;28;20038;-81
2022/01/22 10:53:49;;;;;;;15.63;7.97;;;6.20;99.90;;;;;;5073198;28;20035;-82
2022/01/22 10:56:22;;;;;;;18.50;8.07;;;6.20;99.90;;;;;;5073998;28;20024;-85
2022/01/22 10:58:55;;;;;;;17.63;8.13;;;8.30;99.90;;;;;;5094125;28;20012;-90
2022/01/22 11:01:26;;;;;;;17.08;9.10;;;8.20;99.90;;;;;;5107865;28;20012;-93
2022/01/22 11:04:15;;;;;;;21.17;8.75;;;6.50;99.90;;;;;;5092326;28;20092;-89
2022/01/22 11:06:57;;;;;;;17.77;9.38;;;6.70;99.90;;;;;;5079743;28;20044;-82
2022/01/22 11:09:29;;;;;;;16.25;9.38;;;6.60;99.90;;;;;;5072279;28;20032;-83
2022/01/22 11:11:56;;;;;;;17.23;9.10;;;6.70;99.90;;;;;;5070767;28;20016;-84
2022/01/22 11:14:23;;;;;;;20.52;9.63;;;8.40;99.90;;;;;;5073686;28;20699;-82
2022/01/22 11:16:50;;;;;;;19.52;9.95;;;6.70;99.90;;;;;;5064917;28;20027;-81
2022/01/22 11:19:22;;;;;;;18.15;9.48;;;7.10;99.90;;;;;;5082543;28;20498;-81
2022/01/22 11:21:51;;;;;;;21.02;10.02;;;8.30;99.90;;;;;;5071169;28;20032;-80
2022/01/22 11:24:20;;;;;;;17.73;10.15;;;6.30;99.90;;;;;;5074766;28;20050;-81
2022/01/22 11:26:53;;;;;;;22.50;10.27;;;6.30;99.90;;;;;;5074899;28;20032;-81
2022/01/22 11:29:24;;;;;;;19.27;9.65;;;6.30;99.90;;;;;;5070822;28;20031;-81
2022/01/22 11:31:52;;;;;;;16.77;9.73;;;8.00;99.90;;;;;;5092104;28;20028;-80
2022/01/22 11:34:21;;;;;;;19.38;10.30;;;7.30;99.90;;;;;;5070509;28;20032;-82
2022/01/22 11:36:58;;;;;;;18.00;9.18;;;7.00;99.90;;;;;;5072010;28;20070;-83
2022/01/22 11:39:25;;;;;;;17.25;10.07;;;6.50;99.90;;;;;;5094005;28;20517;-80
2022/01/22 11:41:53;;;;;;;18.55;10.02;;;7.20;99.90;;;;;;5086424;28;20032;-80
2022/01/22 11:44:39;;;;;;;18.38;9.98;;;8.50;99.90;;;;;;5082783;28;20505;-83
2022/01/22 11:47:13;;;;;;;21.63;10.50;;;6.60;99.90;;;;;;5070208;28;20042;-83
2022/01/22 11:49:40;;;;;;;17.10;9.93;;;6.70;99.90;;;;;;5068313;28;20040;-86
2022/01/22 11:52:12;;;;;;;20.42;10.90;;;6.70;99.90;;;;;;5071207;28;20126;-80
2022/01/22 11:55:05;;;;;;;16.98;10.88;;;6.70;99.90;;;;;;5068692;28;20067;-81
2022/01/22 11:57:32;;;;;;;20.27;10.95;;;6.70;99.90;;;;;;5083326;28;20119;-81
2022/01/22 12:00:23;;;;;;;20.58;9.73;;;6.80;99.90;;;;;;5084389;28;20039;-84
2022/01/22 12:03:16;;;;;;;16.02;9.73;;;6.70;99.90;;;;;;5084250;28;20666;-81
2022/01/22 12:05:54;;;;;;;20.88;10.63;;;6.60;99.90;;;;;;5062861;28;20540;-81
2022/01/22 12:08:21;;;;;;;13.93;9.18;;;6.60;99.90;;;;;;5087449;28;20043;-80
2022/01/22 12:16:39;;;;;;;18.65;9.88;;;6.70;99.90;;;;;;5081305;28;20498;-82
2022/01/22 12:19:48;;;;;;;15.48;8.52;;;6.60;99.90;;;;;;5073306;28;20024;-82
2022/01/22 12:22:39;;;;;;;15.50;8.95;;;6.70;99.90;;;;;;5070382;28;20089;-86
2022/01/22 12:25:10;;;;;;;19.27;10.02;;;6.70;99.90;;;;;;5073936;28;20434;-81
2022/01/22 12:27:51;;;;;;;19.02;9.10;;;6.70;99.90;;;;;;5084522;28;20044;-80
2022/01/22 12:30:38;;;;;;;18.13;10.38;;;6.70;99.90;;;;;;5086786;28;20036;-83
2022/01/22 12:33:13;;;;;;;19.15;9.85;;;6.80;99.90;;;;;;5068743;28;20036;-81
2022/01/22 12:35:47;;;;;;;18.17;9.48;;;6.80;99.90;;;;;;5073757;28;20020;-83
2022/01/22 12:38:28;;;;;;;22.83;9.18;;;6.80;99.90;;;;;;5069535;28;20401;-80
2022/01/22 12:41:13;;;;;;;17.40;9.32;;;6.80;99.90;;;;;;5077242;28;20028;-82
2022/01/22 12:43:39;;;;;;;21.67;11.13;;;6.70;99.90;;;;;;5085107;28;20032;-82
2022/01/22 12:46:05;;;;;;;22.70;9.43;;;6.70;99.90;;;;;;5077534;28;20574;-81
2022/01/22 12:48:36;;;;;;;20.38;9.60;;;6.70;99.90;;;;;;5075241;28;20024;-82
2022/01/22 12:51:07;;;;;;;18.80;10.18;;;6.70;99.90;;;;;;5071158;28;20024;-82
2022/01/22 12:53:35;;;;;;;18.48;10.00;;;6.70;99.90;;;;;;5073293;28;20501;-82
2022/01/22 12:58:30;;;;;;;18.33;9.43;;;6.80;99.90;;;;;;5094607;28;20027;-82
2022/01/22 13:01:18;;;;;;;18.90;8.98;;;6.80;99.90;;;;;;5068538;28;20036;-82
2022/01/22 13:03:50;;;;;;;16.45;7.50;;;6.80;99.90;;;;;;5068859;28;20429;-83
2022/01/22 13:06:17;;;;;;;16.45;8.18;;;6.70;99.90;;;;;;5075936;28;20032;-83
2022/01/22 13:08:43;;;;;;;12.32;7.18;;;7.60;99.90;;;;;;5086843;28;20374;-82
2022/01/22 13:11:13;;;;;;;15.98;7.63;;;6.90;99.90;;;;;;5073431;28;20103;-83
2022/01/22 13:13:40;;;;;;;8.98;5.95;;;6.90;99.90;;;;;;5092090;28;20026;-81
2022/01/22 13:16:07;;;;;;;11.20;5.50;;;6.90;99.90;;;;;;5071769;28;20059;-81
2022/01/22 13:18:43;;;;;;;8.77;4.82;;;6.90;99.90;;;;;;5067982;28;20024;-83
2022/01/22 13:21:11;;;;;;;8.73;4.95;;;6.90;99.90;;;;;;5070615;28;20032;-84
2022/01/22 13:23:37;;;;;;;8.75;4.80;;;7.10;99.90;;;;;;5079088;28;20051;-85
2022/01/22 13:26:08;;;;;;;8.25;4.32;;;7.10;99.90;;;;;;5067839;28;20058;-82
2022/01/22 13:28:37;;;;;;;6.90;4.70;;;7.10;99.90;;;;;;5097694;28;20095;-88
2022/01/22 13:31:11;;;;;;;11.15;6.28;;;8.40;99.90;;;;;;5108950;28;20015;-87
2022/01/22 13:33:46;;;;;;;10.77;5.85;;;7.10;99.90;;;;;;5093694;28;20070;-87
2022/01/22 13:39:22;;;;;;;11.23;7.53;;;7.30;99.90;;;;;;5089967;28;20544;-81
2022/01/22 13:47:45;;;;;;;11.65;6.55;;;7.10;99.90;;;;;;5090067;28;20058;-81
2022/01/22 13:50:15;;;;;;;9.35;6.82;;;7.50;99.90;;;;;;5085044;28;20043;-81
2022/01/22 13:52:43;;;;;;;9.23;5.70;;;7.00;99.90;;;;;;5081219;28;20020;-82
2022/01/22 13:55:12;;;;;;;9.23;5.95;;;7.00;99.90;;;;;;5068087;28;20462;-81
2022/01/22 13:57:38;;;;;;;7.07;4.90;;;8.20;99.90;;;;;;5080663;28;20030;-79
2022/01/22 14:00:10;;;;;;;6.32;4.10;;;6.90;99.90;;;;;;5066522;28;20556;-81
2022/01/22 14:03:08;;;;;;;6.60;4.05;;;6.90;99.90;;;;;;5068085;28;20035;-81
2022/01/22 14:05:34;;;;;;;6.35;4.15;;;6.90;99.90;;;;;;5071726;28;20032;-80
2022/01/22 14:08:03;;;;;;;6.88;3.90;;;6.90;99.90;;;;;;5070339;28;20087;-83
2022/01/22 14:10:29;;;;;;;7.22;3.75;;;6.90;99.90;;;;;;5087478;28;20067;-80
2022/01/22 14:13:01;;;;;;;5.65;4.00;;;8.00;99.90;;;;;;5088988;28;20056;-80
2022/01/22 14:15:28;;;;;;;10.95;6.80;;;6.80;99.90;;;;;;5072366;28;20115;-80
2022/01/22 14:21:08;;;;;;;10.38;6.38;;;6.80;99.90;;;;;;5095138;28;20024;-88
2022/01/22 14:23:35;;;;;;;10.13;6.63;;;6.80;99.90;;;;;;5076989;28;20062;-82
2022/01/22 14:26:35;;;;;;;9.23;6.30;;;6.80;99.90;;;;;;5070148;28;20020;-79
2022/01/22 14:29:09;;;;;;;10.32;6.32;;;6.90;99.90;;;;;;5092273;28;20034;-80
2022/01/22 14:31:43;;;;;;;13.00;7.30;;;8.20;99.90;;;;;;5078750;28;20623;-84
2022/01/22 14:34:31;;;;;;;12.45;8.63;;;6.90;99.90;;;;;;5071601;28;20515;-81
2022/01/22 14:36:57;;;;;;;10.07;6.82;;;6.80;99.90;;;;;;5071429;28;20024;-83
2022/01/22 14:44:49;;;;;;;8.38;5.00;;;6.90;99.90;;;;;;5092788;28;20039;-80
2022/01/22 14:47:20;;;;;;;9.25;6.07;;;7.20;99.90;;;;;;5077007;28;20258;-81
2022/01/22 14:50:00;;;;;;;;;;;6.80;99.90;;;;;;5090532;28;20439;-81
2022/01/22 14:52:30;;;;;;;9.52;5.85;;;6.90;99.90;;;;;;5074369;28;19995;-85
2022/01/22 14:54:58;;;;;;;8.80;5.88;;;6.80;99.90;;;;;;5069882;28;20032;-83
2022/01/22 14:57:37;;;;;;;8.27;5.78;;;5.70;99.90;;;;;;5093023;28;20024;-81
2022/01/22 15:00:07;;;;;;;8.45;6.13;;;7.80;99.90;;;;;;5076709;28;20020;-80
2022/01/22 15:02:34;;;;;;;9.07;6.67;;;6.80;99.90;;;;;;5072122;28;20028;-82